Black Hawk, Louisiana
Current Conditions -  °F | °C
As of 12:35 PM on Sunday 23 Nov 2014 (Local Time) from KHEZ Reporting Station
Overcast Overcast  
Wind Chill: 68°   Ceiling: 3600
Heat Index: 68°   Visibility: 10mi
Dew Point: 59°   Wind: 13mph
Humidity: 73%   Direction: 210°SSW
Pressure: 29.56"   Gusts: 21mph
Location:  31.5712°N, 91.5148°W
Report Text: KHEZ 231835Z AUTO 21011G18KT 10SM FEW027 OVC036 20/15 A2956 RMK AO1
Loading
Personal Weather Stations






























Interactive Weather Map New forecast layout! Learn more

10-Day Weather Forecast

Advertisements
Track Severe Weather on mobile